sensor_id;sensor_type;location;lat;lon;timestamp;temperature;humidity
67748;HTU21D;54543;50.712;6.070;2022-12-24T00:01:52;10.34;82.94
67748;HTU21D;54543;50.712;6.070;2022-12-24T00:04:18;10.34;83.13
67748;HTU21D;54543;50.712;6.070;2022-12-24T00:06:43;10.31;83.18
67748;HTU21D;54543;50.712;6.070;2022-12-24T00:09:09;10.29;82.74
67748;HTU21D;54543;50.712;6.070;2022-12-24T00:11:34;10.31;83.42
67748;HTU21D;54543;50.712;6.070;2022-12-24T00:14:00;10.28;83.24
67748;HTU21D;54543;50.712;6.070;2022-12-24T00:16:25;10.30;83.47
67748;HTU21D;54543;50.712;6.070;2022-12-24T00:18:51;10.31;83.71
67748;HTU21D;54543;50.712;6.070;2022-12-24T00:21:17;10.34;83.44
67748;HTU21D;54543;50.712;6.070;2022-12-24T00:23:42;10.34;83.68
67748;HTU21D;54543;50.712;6.070;2022-12-24T00:26:08;10.30;83.40
67748;HTU21D;54543;50.712;6.070;2022-12-24T00:28:34;10.34;83.74
67748;HTU21D;54543;50.712;6.070;2022-12-24T00:31:06;10.30;83.73
67748;HTU21D;54543;50.712;6.070;2022-12-24T00:33:31;10.30;83.68
67748;HTU21D;54543;50.712;6.070;2022-12-24T00:35:57;10.36;83.81
67748;HTU21D;54543;50.712;6.070;2022-12-24T00:38:22;10.33;84.08
67748;HTU21D;54543;50.712;6.070;2022-12-24T00:40:48;10.28;84.07
67748;HTU21D;54543;50.712;6.070;2022-12-24T00:43:13;10.26;84.31
67748;HTU21D;54543;50.712;6.070;2022-12-24T00:45:39;10.27;84.45
67748;HTU21D;54543;50.712;6.070;2022-12-24T00:48:04;10.29;84.47
67748;HTU21D;54543;50.712;6.070;2022-12-24T00:50:30;10.27;84.61
67748;HTU21D;54543;50.712;6.070;2022-12-24T00:52:55;10.20;86.01
67748;HTU21D;54543;50.712;6.070;2022-12-24T00:55:21;10.16;85.78
67748;HTU21D;54543;50.712;6.070;2022-12-24T00:57:46;10.11;86.18
67748;HTU21D;54543;50.712;6.070;2022-12-24T01:00:12;10.07;86.15
67748;HTU21D;54543;50.712;6.070;2022-12-24T01:02:37;10.06;86.86
67748;HTU21D;54543;50.712;6.070;2022-12-24T01:05:03;10.04;87.15
67748;HTU21D;54543;50.712;6.070;2022-12-24T01:07:39;10.01;87.34
67748;HTU21D;54543;50.712;6.070;2022-12-24T01:10:06;9.99;87.23
67748;HTU21D;54543;50.712;6.070;2022-12-24T01:12:32;9.99;86.96
67748;HTU21D;54543;50.712;6.070;2022-12-24T01:14:57;9.96;86.99
67748;HTU21D;54543;50.712;6.070;2022-12-24T01:17:23;9.91;87.35
67748;HTU21D;54543;50.712;6.070;2022-12-24T01:19:49;9.85;87.31
67748;HTU21D;54543;50.712;6.070;2022-12-24T01:22:14;9.76;87.67
67748;HTU21D;54543;50.712;6.070;2022-12-24T01:24:41;9.70;87.68
67748;HTU21D;54543;50.712;6.070;2022-12-24T01:27:06;9.67;88.01
67748;HTU21D;54543;50.712;6.070;2022-12-24T01:29:32;9.66;88.07
67748;HTU21D;54543;50.712;6.070;2022-12-24T01:31:58;9.60;88.04
67748;HTU21D;54543;50.712;6.070;2022-12-24T01:34:23;9.60;88.30
67748;HTU21D;54543;50.712;6.070;2022-12-24T01:36:49;9.64;88.27
67748;HTU21D;54543;50.712;6.070;2022-12-24T01:39:14;9.64;88.77
67748;HTU21D;54543;50.712;6.070;2022-12-24T01:41:40;9.69;88.62
67748;HTU21D;54543;50.712;6.070;2022-12-24T01:44:30;9.76;88.46
67748;HTU21D;54543;50.712;6.070;2022-12-24T01:49:27;9.82;88.51
67748;HTU21D;54543;50.712;6.070;2022-12-24T01:52:03;9.83;88.52
67748;HTU21D;54543;50.712;6.070;2022-12-24T01:54:54;9.85;88.36
67748;HTU21D;54543;50.712;6.070;2022-12-24T01:57:24;9.84;88.85
67748;HTU21D;54543;50.712;6.070;2022-12-24T01:59:56;9.84;89.14
67748;HTU21D;54543;50.712;6.070;2022-12-24T02:02:23;9.85;89.34
67748;HTU21D;54543;50.712;6.070;2022-12-24T02:05:05;9.76;90.50
67748;HTU21D;54543;50.712;6.070;2022-12-24T02:07:32;9.69;90.98
67748;HTU21D;54543;50.712;6.070;2022-12-24T02:10:00;9.64;91.21
67748;HTU21D;54543;50.712;6.070;2022-12-24T02:12:28;9.61;89.66
67748;HTU21D;54543;50.712;6.070;2022-12-24T02:14:54;9.56;90.97
67748;HTU21D;54543;50.712;6.070;2022-12-24T02:17:33;9.52;92.63
67748;HTU21D;54543;50.712;6.070;2022-12-24T02:20:59;9.45;93.19
67748;HTU21D;54543;50.712;6.070;2022-12-24T02:27:06;9.39;93.84
67748;HTU21D;54543;50.712;6.070;2022-12-24T02:32:04;9.38;93.62
67748;HTU21D;54543;50.712;6.070;2022-12-24T02:34:44;9.39;93.62
67748;HTU21D;54543;50.712;6.070;2022-12-24T02:37:14;9.38;93.40
67748;HTU21D;54543;50.712;6.070;2022-12-24T02:39:52;9.38;93.56
67748;HTU21D;54543;50.712;6.070;2022-12-24T02:42:24;9.39;93.35
67748;HTU21D;54543;50.712;6.070;2022-12-24T02:45:19;9.40;93.48
67748;HTU21D;54543;50.712;6.070;2022-12-24T02:47:47;9.37;94.49
67748;HTU21D;54543;50.712;6.070;2022-12-24T02:50:14;9.36;93.65
67748;HTU21D;54543;50.712;6.070;2022-12-24T02:52:43;9.37;93.14
67748;HTU21D;54543;50.712;6.070;2022-12-24T02:58:26;9.38;93.45
67748;HTU21D;54543;50.712;6.070;2022-12-24T03:01:02;9.37;93.46
67748;HTU21D;54543;50.712;6.070;2022-12-24T03:09:02;9.41;92.96
67748;HTU21D;54543;50.712;6.070;2022-12-24T03:11:32;9.41;93.04
67748;HTU21D;54543;50.712;6.070;2022-12-24T03:14:00;9.41;92.88
67748;HTU21D;54543;50.712;6.070;2022-12-24T03:16:27;9.44;92.74
67748;HTU21D;54543;50.712;6.070;2022-12-24T03:18:54;9.47;92.61
67748;HTU21D;54543;50.712;6.070;2022-12-24T03:21:31;9.49;92.52
67748;HTU21D;54543;50.712;6.070;2022-12-24T03:23:57;9.53;92.14
67748;HTU21D;54543;50.712;6.070;2022-12-24T03:26:24;9.55;91.91
67748;HTU21D;54543;50.712;6.070;2022-12-24T03:28:50;9.56;91.89
67748;HTU21D;54543;50.712;6.070;2022-12-24T03:31:16;9.55;91.97
67748;HTU21D;54543;50.712;6.070;2022-12-24T03:33:43;9.57;91.69
67748;HTU21D;54543;50.712;6.070;2022-12-24T03:36:09;9.62;91.64
67748;HTU21D;54543;50.712;6.070;2022-12-24T03:38:35;9.63;91.49
67748;HTU21D;54543;50.712;6.070;2022-12-24T03:41:00;9.70;90.99
67748;HTU21D;54543;50.712;6.070;2022-12-24T03:43:26;9.70;91.16
67748;HTU21D;54543;50.712;6.070;2022-12-24T03:45:51;9.74;90.85
67748;HTU21D;54543;50.712;6.070;2022-12-24T03:48:17;9.72;90.95
67748;HTU21D;54543;50.712;6.070;2022-12-24T03:50:43;9.72;91.40
67748;HTU21D;54543;50.712;6.070;2022-12-24T03:53:08;9.74;91.37
67748;HTU21D;54543;50.712;6.070;2022-12-24T03:55:34;9.72;91.24
67748;HTU21D;54543;50.712;6.070;2022-12-24T03:57:59;9.72;91.36
67748;HTU21D;54543;50.712;6.070;2022-12-24T04:00:25;9.74;91.06
67748;HTU21D;54543;50.712;6.070;2022-12-24T04:02:50;9.72;91.42
67748;HTU21D;54543;50.712;6.070;2022-12-24T04:05:18;9.74;91.42
67748;HTU21D;54543;50.712;6.070;2022-12-24T04:07:44;9.72;91.60
67748;HTU21D;54543;50.712;6.070;2022-12-24T04:10:10;9.70;91.87
67748;HTU21D;54543;50.712;6.070;2022-12-24T04:12:36;9.75;91.30
67748;HTU21D;54543;50.712;6.070;2022-12-24T04:15:02;9.68;91.84
67748;HTU21D;54543;50.712;6.070;2022-12-24T04:17:28;9.69;91.73
67748;HTU21D;54543;50.712;6.070;2022-12-24T04:19:53;9.67;92.27
67748;HTU21D;54543;50.712;6.070;2022-12-24T04:22:19;9.67;92.28
67748;HTU21D;54543;50.712;6.070;2022-12-24T04:24:44;9.66;92.95
67748;HTU21D;54543;50.712;6.070;2022-12-24T04:27:12;9.62;92.97
67748;HTU21D;54543;50.712;6.070;2022-12-24T04:29:38;9.59;92.37
67748;HTU21D;54543;50.712;6.070;2022-12-24T04:32:03;9.53;92.78
67748;HTU21D;54543;50.712;6.070;2022-12-24T04:34:29;9.52;93.16
67748;HTU21D;54543;50.712;6.070;2022-12-24T04:36:54;9.49;92.75
67748;HTU21D;54543;50.712;6.070;2022-12-24T04:39:20;9.44;92.60
67748;HTU21D;54543;50.712;6.070;2022-12-24T04:41:45;9.38;93.44
67748;HTU21D;54543;50.712;6.070;2022-12-24T04:44:11;9.35;93.72
67748;HTU21D;54543;50.712;6.070;2022-12-24T04:46:36;9.33;94.38
67748;HTU21D;54543;50.712;6.070;2022-12-24T04:49:02;9.33;95.15
67748;HTU21D;54543;50.712;6.070;2022-12-24T04:51:28;9.34;94.84
67748;HTU21D;54543;50.712;6.070;2022-12-24T04:53:54;9.32;95.15
67748;HTU21D;54543;50.712;6.070;2022-12-24T04:56:23;9.35;94.84
67748;HTU21D;54543;50.712;6.070;2022-12-24T04:58:49;9.35;94.82
67748;HTU21D;54543;50.712;6.070;2022-12-24T05:01:21;9.36;95.03
67748;HTU21D;54543;50.712;6.070;2022-12-24T05:03:47;9.37;95.44
67748;HTU21D;54543;50.712;6.070;2022-12-24T05:06:16;9.37;95.26
67748;HTU21D;54543;50.712;6.070;2022-12-24T05:08:42;9.37;95.21
67748;HTU21D;54543;50.712;6.070;2022-12-24T05:11:08;9.38;95.48
67748;HTU21D;54543;50.712;6.070;2022-12-24T05:13:35;9.38;95.52
67748;HTU21D;54543;50.712;6.070;2022-12-24T05:16:00;9.39;95.49
67748;HTU21D;54543;50.712;6.070;2022-12-24T05:18:26;9.41;95.46
67748;HTU21D;54543;50.712;6.070;2022-12-24T05:20:51;9.41;95.30
67748;HTU21D;54543;50.712;6.070;2022-12-24T05:23:22;9.41;95.30
67748;HTU21D;54543;50.712;6.070;2022-12-24T05:26:32;9.41;95.21
67748;HTU21D;54543;50.712;6.070;2022-12-24T05:29:00;9.42;95.29
67748;HTU21D;54543;50.712;6.070;2022-12-24T05:31:27;9.44;95.30
67748;HTU21D;54543;50.712;6.070;2022-12-24T05:33:53;9.45;95.26
67748;HTU21D;54543;50.712;6.070;2022-12-24T05:36:22;9.42;95.20
67748;HTU21D;54543;50.712;6.070;2022-12-24T05:38:48;9.44;95.10
67748;HTU21D;54543;50.712;6.070;2022-12-24T05:41:26;9.44;94.70
67748;HTU21D;54543;50.712;6.070;2022-12-24T05:43:55;9.44;94.93
67748;HTU21D;54543;50.712;6.070;2022-12-24T05:46:27;9.44;94.81
67748;HTU21D;54543;50.712;6.070;2022-12-24T05:48:53;9.45;94.73
67748;HTU21D;54543;50.712;6.070;2022-12-24T05:51:22;9.47;94.50
67748;HTU21D;54543;50.712;6.070;2022-12-24T05:53:49;9.45;94.61
67748;HTU21D;54543;50.712;6.070;2022-12-24T05:56:19;9.46;94.55
67748;HTU21D;54543;50.712;6.070;2022-12-24T05:58:45;9.46;94.49
67748;HTU21D;54543;50.712;6.070;2022-12-24T06:01:11;9.45;94.49
67748;HTU21D;54543;50.712;6.070;2022-12-24T06:03:37;9.42;94.44
67748;HTU21D;54543;50.712;6.070;2022-12-24T06:06:14;9.42;94.26
67748;HTU21D;54543;50.712;6.070;2022-12-24T06:08:43;9.41;94.20
67748;HTU21D;54543;50.712;6.070;2022-12-24T06:11:12;9.40;94.37
67748;HTU21D;54543;50.712;6.070;2022-12-24T06:13:40;9.40;94.30
67748;HTU21D;54543;50.712;6.070;2022-12-24T06:16:08;9.40;94.23
67748;HTU21D;54543;50.712;6.070;2022-12-24T06:18:35;9.41;94.03
67748;HTU21D;54543;50.712;6.070;2022-12-24T06:21:01;9.41;94.14
67748;HTU21D;54543;50.712;6.070;2022-12-24T06:23:29;9.41;93.98
67748;HTU21D;54543;50.712;6.070;2022-12-24T06:25:56;9.44;94.02
67748;HTU21D;54543;50.712;6.070;2022-12-24T06:28:22;9.44;94.17
67748;HTU21D;54543;50.712;6.070;2022-12-24T06:30:49;9.42;94.14
67748;HTU21D;54543;50.712;6.070;2022-12-24T06:33:15;9.44;93.88
67748;HTU21D;54543;50.712;6.070;2022-12-24T06:35:43;9.42;94.10
67748;HTU21D;54543;50.712;6.070;2022-12-24T06:38:09;9.44;94.06
67748;HTU21D;54543;50.712;6.070;2022-12-24T06:40:37;9.42;94.02
67748;HTU21D;54543;50.712;6.070;2022-12-24T06:43:03;9.45;93.76
67748;HTU21D;54543;50.712;6.070;2022-12-24T06:45:28;9.45;93.71
67748;HTU21D;54543;50.712;6.070;2022-12-24T06:47:54;9.45;93.58
67748;HTU21D;54543;50.712;6.070;2022-12-24T06:50:19;9.45;93.55
67748;HTU21D;54543;50.712;6.070;2022-12-24T06:52:44;9.47;93.37
67748;HTU21D;54543;50.712;6.070;2022-12-24T06:55:10;9.46;93.18
67748;HTU21D;54543;50.712;6.070;2022-12-24T06:57:35;9.44;92.98
67748;HTU21D;54543;50.712;6.070;2022-12-24T07:00:01;9.46;92.89
67748;HTU21D;54543;50.712;6.070;2022-12-24T07:02:27;9.47;93.02
67748;HTU21D;54543;50.712;6.070;2022-12-24T07:04:52;9.47;93.08
67748;HTU21D;54543;50.712;6.070;2022-12-24T07:07:18;9.47;93.10
67748;HTU21D;54543;50.712;6.070;2022-12-24T07:09:43;9.47;92.91
67748;HTU21D;54543;50.712;6.070;2022-12-24T07:12:09;9.48;92.89
67748;HTU21D;54543;50.712;6.070;2022-12-24T07:14:35;9.49;92.85
67748;HTU21D;54543;50.712;6.070;2022-12-24T07:17:00;9.48;92.92
67748;HTU21D;54543;50.712;6.070;2022-12-24T07:19:26;9.48;92.82
67748;HTU21D;54543;50.712;6.070;2022-12-24T07:21:51;9.49;92.63
67748;HTU21D;54543;50.712;6.070;2022-12-24T07:24:17;9.49;92.69
67748;HTU21D;54543;50.712;6.070;2022-12-24T07:26:43;9.48;92.50
67748;HTU21D;54543;50.712;6.070;2022-12-24T07:29:08;9.49;92.17
67748;HTU21D;54543;50.712;6.070;2022-12-24T07:31:34;9.49;92.51
67748;HTU21D;54543;50.712;6.070;2022-12-24T07:33:59;9.48;92.56
67748;HTU21D;54543;50.712;6.070;2022-12-24T07:36:25;9.50;92.46
67748;HTU21D;54543;50.712;6.070;2022-12-24T07:38:53;9.47;92.14
67748;HTU21D;54543;50.712;6.070;2022-12-24T07:41:19;9.49;92.34
67748;HTU21D;54543;50.712;6.070;2022-12-24T07:43:45;9.48;92.32
67748;HTU21D;54543;50.712;6.070;2022-12-24T07:46:11;9.49;92.37
67748;HTU21D;54543;50.712;6.070;2022-12-24T07:48:37;9.48;92.31
67748;HTU21D;54543;50.712;6.070;2022-12-24T07:51:02;9.50;92.11
67748;HTU21D;54543;50.712;6.070;2022-12-24T07:53:29;9.51;92.15
67748;HTU21D;54543;50.712;6.070;2022-12-24T07:55:55;9.52;92.09
67748;HTU21D;54543;50.712;6.070;2022-12-24T07:58:21;9.52;92.22
67748;HTU21D;54543;50.712;6.070;2022-12-24T08:00:46;9.53;91.87
67748;HTU21D;54543;50.712;6.070;2022-12-24T08:03:17;9.52;91.85
67748;HTU21D;54543;50.712;6.070;2022-12-24T08:05:43;9.53;91.77
67748;HTU21D;54543;50.712;6.070;2022-12-24T08:08:08;9.54;91.69
67748;HTU21D;54543;50.712;6.070;2022-12-24T08:10:37;9.53;91.89
67748;HTU21D;54543;50.712;6.070;2022-12-24T08:13:03;9.55;91.66
67748;HTU21D;54543;50.712;6.070;2022-12-24T08:15:28;9.59;91.75
67748;HTU21D;54543;50.712;6.070;2022-12-24T08:17:54;9.65;91.29
67748;HTU21D;54543;50.712;6.070;2022-12-24T08:20:19;9.62;91.31
67748;HTU21D;54543;50.712;6.070;2022-12-24T08:22:44;9.64;91.60
67748;HTU21D;54543;50.712;6.070;2022-12-24T08:25:10;9.65;91.28
67748;HTU21D;54543;50.712;6.070;2022-12-24T08:27:35;9.69;91.13
67748;HTU21D;54543;50.712;6.070;2022-12-24T08:30:02;9.75;91.27
67748;HTU21D;54543;50.712;6.070;2022-12-24T08:32:28;9.81;90.95
67748;HTU21D;54543;50.712;6.070;2022-12-24T08:34:53;9.88;90.79
67748;HTU21D;54543;50.712;6.070;2022-12-24T08:37:19;9.92;90.59
67748;HTU21D;54543;50.712;6.070;2022-12-24T08:39:45;9.96;90.46
67748;HTU21D;54543;50.712;6.070;2022-12-24T08:42:10;10.04;90.12
67748;HTU21D;54543;50.712;6.070;2022-12-24T08:44:36;10.06;89.75
67748;HTU21D;54543;50.712;6.070;2022-12-24T08:47:01;10.05;89.43
67748;HTU21D;54543;50.712;6.070;2022-12-24T08:49:27;10.10;89.93
67748;HTU21D;54543;50.712;6.070;2022-12-24T08:51:52;10.19;90.13
67748;HTU21D;54543;50.712;6.070;2022-12-24T08:54:18;10.27;89.73
67748;HTU21D;54543;50.712;6.070;2022-12-24T08:56:43;10.33;89.24
67748;HTU21D;54543;50.712;6.070;2022-12-24T08:59:10;10.38;89.04
67748;HTU21D;54543;50.712;6.070;2022-12-24T09:01:36;10.42;88.62
67748;HTU21D;54543;50.712;6.070;2022-12-24T09:04:03;10.43;88.00
67748;HTU21D;54543;50.712;6.070;2022-12-24T09:06:31;10.44;88.18
67748;HTU21D;54543;50.712;6.070;2022-12-24T09:08:56;10.40;88.24
67748;HTU21D;54543;50.712;6.070;2022-12-24T09:11:23;10.36;88.39
67748;HTU21D;54543;50.712;6.070;2022-12-24T09:13:48;10.35;88.61
67748;HTU21D;54543;50.712;6.070;2022-12-24T09:16:14;10.34;88.91
67748;HTU21D;54543;50.712;6.070;2022-12-24T09:18:39;10.34;88.69
67748;HTU21D;54543;50.712;6.070;2022-12-24T09:21:11;10.35;88.96
67748;HTU21D;54543;50.712;6.070;2022-12-24T09:23:40;10.35;88.64
67748;HTU21D;54543;50.712;6.070;2022-12-24T09:26:12;10.36;88.51
67748;HTU21D;54543;50.712;6.070;2022-12-24T09:28:38;10.36;88.51
67748;HTU21D;54543;50.712;6.070;2022-12-24T09:31:05;10.39;88.73
67748;HTU21D;54543;50.712;6.070;2022-12-24T09:33:34;10.45;88.36
67748;HTU21D;54543;50.712;6.070;2022-12-24T09:36:01;10.44;88.42
67748;HTU21D;54543;50.712;6.070;2022-12-24T09:38:27;10.45;88.20
67748;HTU21D;54543;50.712;6.070;2022-12-24T09:40:54;10.44;88.25
67748;HTU21D;54543;50.712;6.070;2022-12-24T09:43:23;10.46;87.77
67748;HTU21D;54543;50.712;6.070;2022-12-24T09:48:34;10.50;88.69
67748;HTU21D;54543;50.712;6.070;2022-12-24T09:51:05;10.53;88.60
67748;HTU21D;54543;50.712;6.070;2022-12-24T09:53:47;10.54;87.96
67748;HTU21D;54543;50.712;6.070;2022-12-24T09:56:24;10.56;87.99
67748;HTU21D;54543;50.712;6.070;2022-12-24T09:59:02;10.66;87.91
67748;HTU21D;54543;50.712;6.070;2022-12-24T10:01:30;10.77;87.09
67748;HTU21D;54543;50.712;6.070;2022-12-24T10:04:11;10.83;87.43
67748;HTU21D;54543;50.712;6.070;2022-12-24T10:09:33;10.84;87.29
67748;HTU21D;54543;50.712;6.070;2022-12-24T10:12:13;10.85;87.63
67748;HTU21D;54543;50.712;6.070;2022-12-24T10:18:06;10.92;86.58
67748;HTU21D;54543;50.712;6.070;2022-12-24T10:20:53;10.97;87.38
67748;HTU21D;54543;50.712;6.070;2022-12-24T10:26:25;10.94;87.12
67748;HTU21D;54543;50.712;6.070;2022-12-24T10:28:57;10.92;87.35
67748;HTU21D;54543;50.712;6.070;2022-12-24T10:31:34;10.87;87.26
67748;HTU21D;54543;50.712;6.070;2022-12-24T10:34:15;10.88;87.01
67748;HTU21D;54543;50.712;6.070;2022-12-24T10:36:41;10.89;87.59
67748;HTU21D;54543;50.712;6.070;2022-12-24T10:39:19;10.87;87.30
67748;HTU21D;54543;50.712;6.070;2022-12-24T10:41:50;10.82;86.30
67748;HTU21D;54543;50.712;6.070;2022-12-24T10:44:19;10.83;87.21
67748;HTU21D;54543;50.712;6.070;2022-12-24T10:46:46;10.84;86.58
67748;HTU21D;54543;50.712;6.070;2022-12-24T10:49:18;10.87;86.74
67748;HTU21D;54543;50.712;6.070;2022-12-24T10:52:05;10.86;86.73
67748;HTU21D;54543;50.712;6.070;2022-12-24T10:54:34;10.92;86.92
67748;HTU21D;54543;50.712;6.070;2022-12-24T10:57:05;10.90;86.58
67748;HTU21D;54543;50.712;6.070;2022-12-24T11:02:00;10.94;85.47
67748;HTU21D;54543;50.712;6.070;2022-12-24T11:04:30;10.99;86.71
67748;HTU21D;54543;50.712;6.070;2022-12-24T11:07:05;11.02;86.09
67748;HTU21D;54543;50.712;6.070;2022-12-24T11:09:35;11.09;86.41
67748;HTU21D;54543;50.712;6.070;2022-12-24T11:12:03;11.15;83.51
67748;HTU21D;54543;50.712;6.070;2022-12-24T11:14:33;11.18;85.04
67748;HTU21D;54543;50.712;6.070;2022-12-24T11:17:00;11.22;85.64
67748;HTU21D;54543;50.712;6.070;2022-12-24T11:19:32;11.24;86.17
67748;HTU21D;54543;50.712;6.070;2022-12-24T11:22:02;11.30;86.16
67748;HTU21D;54543;50.712;6.070;2022-12-24T11:24:33;11.32;85.27
67748;HTU21D;54543;50.712;6.070;2022-12-24T11:27:31;11.32;85.32
67748;HTU21D;54543;50.712;6.070;2022-12-24T11:30:18;11.32;85.55
67748;HTU21D;54543;50.712;6.070;2022-12-24T11:32:50;11.27;85.42
67748;HTU21D;54543;50.712;6.070;2022-12-24T11:35:39;11.24;85.84
67748;HTU21D;54543;50.712;6.070;2022-12-24T11:40:41;11.19;84.61
67748;HTU21D;54543;50.712;6.070;2022-12-24T11:43:19;11.20;85.62
67748;HTU21D;54543;50.712;6.070;2022-12-24T11:45:53;11.19;86.16
67748;HTU21D;54543;50.712;6.070;2022-12-24T11:48:28;11.22;85.80
67748;HTU21D;54543;50.712;6.070;2022-12-24T11:51:01;11.20;85.74
67748;HTU21D;54543;50.712;6.070;2022-12-24T11:53:40;11.20;85.67
67748;HTU21D;54543;50.712;6.070;2022-12-24T11:56:23;11.23;86.14
67748;HTU21D;54543;50.712;6.070;2022-12-24T11:58:55;11.26;86.28
67748;HTU21D;54543;50.712;6.070;2022-12-24T12:04:18;11.15;85.44
67748;HTU21D;54543;50.712;6.070;2022-12-24T12:07:09;11.13;86.04
67748;HTU21D;54543;50.712;6.070;2022-12-24T12:09:33;11.12;85.82
67748;HTU21D;54543;50.712;6.070;2022-12-24T12:14:40;11.03;86.06
67748;HTU21D;54543;50.712;6.070;2022-12-24T12:19:45;11.03;86.12
67748;HTU21D;54543;50.712;6.070;2022-12-24T12:22:23;10.99;85.67
67748;HTU21D;54543;50.712;6.070;2022-12-24T12:24:54;11.09;86.16
67748;HTU21D;54543;50.712;6.070;2022-12-24T12:27:34;11.12;86.18
67748;HTU21D;54543;50.712;6.070;2022-12-24T12:30:19;11.18;86.38
67748;HTU21D;54543;50.712;6.070;2022-12-24T12:33:17;11.26;85.83
67748;HTU21D;54543;50.712;6.070;2022-12-24T12:35:44;11.40;86.23
67748;HTU21D;54543;50.712;6.070;2022-12-24T12:38:15;11.46;85.96
67748;HTU21D;54543;50.712;6.070;2022-12-24T12:54:33;11.46;84.15
67748;HTU21D;54543;50.712;6.070;2022-12-24T12:57:08;11.39;84.33
67748;HTU21D;54543;50.712;6.070;2022-12-24T12:59:58;11.28;84.01
67748;HTU21D;54543;50.712;6.070;2022-12-24T13:08:16;11.28;84.90
67748;HTU21D;54543;50.712;6.070;2022-12-24T13:13:42;11.34;84.80
67748;HTU21D;54543;50.712;6.070;2022-12-24T13:18:57;11.36;85.30
67748;HTU21D;54543;50.712;6.070;2022-12-24T13:21:27;11.34;85.15
67748;HTU21D;54543;50.712;6.070;2022-12-24T13:24:13;11.32;84.71
67748;HTU21D;54543;50.712;6.070;2022-12-24T13:26:39;11.29;84.46
67748;HTU21D;54543;50.712;6.070;2022-12-24T13:31:49;11.25;84.89
67748;HTU21D;54543;50.712;6.070;2022-12-24T13:34:35;11.22;84.13
67748;HTU21D;54543;50.712;6.070;2022-12-24T13:37:04;11.22;85.02
67748;HTU21D;54543;50.712;6.070;2022-12-24T13:40:00;11.20;84.32
67748;HTU21D;54543;50.712;6.070;2022-12-24T13:48:00;11.23;85.04
67748;HTU21D;54543;50.712;6.070;2022-12-24T13:53:21;11.20;84.74
67748;HTU21D;54543;50.712;6.070;2022-12-24T13:58:45;11.26;84.96
67748;HTU21D;54543;50.712;6.070;2022-12-24T14:01:32;11.27;84.58
67748;HTU21D;54543;50.712;6.070;2022-12-24T14:04:00;11.29;84.99
67748;HTU21D;54543;50.712;6.070;2022-12-24T14:06:29;11.29;84.64
67748;HTU21D;54543;50.712;6.070;2022-12-24T14:09:04;11.28;84.91
67748;HTU21D;54543;50.712;6.070;2022-12-24T14:14:40;11.26;83.99
67748;HTU21D;54543;50.712;6.070;2022-12-24T14:17:19;11.25;84.87
67748;HTU21D;54543;50.712;6.070;2022-12-24T14:19:58;11.24;84.45
67748;HTU21D;54543;50.712;6.070;2022-12-24T14:22:39;11.24;85.16
67748;HTU21D;54543;50.712;6.070;2022-12-24T14:25:34;11.26;85.31
67748;HTU21D;54543;50.712;6.070;2022-12-24T14:28:14;11.27;84.90
67748;HTU21D;54543;50.712;6.070;2022-12-24T14:30:43;11.26;85.36
67748;HTU21D;54543;50.712;6.070;2022-12-24T14:33:28;11.22;84.86
67748;HTU21D;54543;50.712;6.070;2022-12-24T14:35:54;11.18;85.18
67748;HTU21D;54543;50.712;6.070;2022-12-24T14:38:21;11.17;85.13
67748;HTU21D;54543;50.712;6.070;2022-12-24T14:41:26;11.10;85.03
67748;HTU21D;54543;50.712;6.070;2022-12-24T14:43:49;11.01;85.09
67748;HTU21D;54543;50.712;6.070;2022-12-24T14:46:38;10.90;84.95
67748;HTU21D;54543;50.712;6.070;2022-12-24T14:52:02;10.85;84.64
67748;HTU21D;54543;50.712;6.070;2022-12-24T14:54:37;10.83;84.97
67748;HTU21D;54543;50.712;6.070;2022-12-24T14:57:10;10.83;85.50
67748;HTU21D;54543;50.712;6.070;2022-12-24T15:02:28;10.74;85.41
67748;HTU21D;54543;50.712;6.070;2022-12-24T15:05:08;10.72;85.64
67748;HTU21D;54543;50.712;6.070;2022-12-24T15:07:37;10.70;85.67
67748;HTU21D;54543;50.712;6.070;2022-12-24T15:10:07;10.65;85.74
67748;HTU21D;54543;50.712;6.070;2022-12-24T15:12:43;10.62;85.94
67748;HTU21D;54543;50.712;6.070;2022-12-24T15:15:14;10.59;86.04
67748;HTU21D;54543;50.712;6.070;2022-12-24T15:17:40;10.57;86.12
67748;HTU21D;54543;50.712;6.070;2022-12-24T15:20:13;10.56;86.21
67748;HTU21D;54543;50.712;6.070;2022-12-24T15:22:40;10.56;86.38
67748;HTU21D;54543;50.712;6.070;2022-12-24T15:25:24;10.56;86.44
67748;HTU21D;54543;50.712;6.070;2022-12-24T15:27:50;10.55;86.54
67748;HTU21D;54543;50.712;6.070;2022-12-24T15:30:19;10.55;86.59
67748;HTU21D;54543;50.712;6.070;2022-12-24T15:32:45;10.54;86.67
67748;HTU21D;54543;50.712;6.070;2022-12-24T15:35:33;10.55;86.47
67748;HTU21D;54543;50.712;6.070;2022-12-24T15:38:00;10.48;86.51
67748;HTU21D;54543;50.712;6.070;2022-12-24T15:40:26;10.42;86.70
67748;HTU21D;54543;50.712;6.070;2022-12-24T15:42:52;10.39;86.92
67748;HTU21D;54543;50.712;6.070;2022-12-24T15:45:30;10.37;87.06
67748;HTU21D;54543;50.712;6.070;2022-12-24T15:48:04;10.35;87.17
67748;HTU21D;54543;50.712;6.070;2022-12-24T15:50:36;10.33;87.16
67748;HTU21D;54543;50.712;6.070;2022-12-24T15:53:06;10.30;87.34
67748;HTU21D;54543;50.712;6.070;2022-12-24T15:55:38;10.29;87.37
67748;HTU21D;54543;50.712;6.070;2022-12-24T16:00:39;10.23;87.41
67748;HTU21D;54543;50.712;6.070;2022-12-24T16:03:16;10.18;87.49
67748;HTU21D;54543;50.712;6.070;2022-12-24T16:05:42;10.15;87.78
67748;HTU21D;54543;50.712;6.070;2022-12-24T16:10:43;10.12;87.89
67748;HTU21D;54543;50.712;6.070;2022-12-24T16:15:48;10.03;88.02
67748;HTU21D;54543;50.712;6.070;2022-12-24T16:18:20;9.98;88.23
67748;HTU21D;54543;50.712;6.070;2022-12-24T16:20:48;9.98;88.44
67748;HTU21D;54543;50.712;6.070;2022-12-24T16:23:23;9.98;88.35
67748;HTU21D;54543;50.712;6.070;2022-12-24T16:25:50;9.98;88.39
67748;HTU21D;54543;50.712;6.070;2022-12-24T16:28:17;9.95;88.31
67748;HTU21D;54543;50.712;6.070;2022-12-24T16:30:44;9.91;88.27
67748;HTU21D;54543;50.712;6.070;2022-12-24T16:33:15;9.86;88.15
67748;HTU21D;54543;50.712;6.070;2022-12-24T16:35:41;9.81;88.19
67748;HTU21D;54543;50.712;6.070;2022-12-24T16:38:07;9.77;88.22
67748;HTU21D;54543;50.712;6.070;2022-12-24T16:40:32;9.72;88.27
67748;HTU21D;54543;50.712;6.070;2022-12-24T16:42:58;9.69;88.38
67748;HTU21D;54543;50.712;6.070;2022-12-24T16:45:43;9.64;88.37
67748;HTU21D;54543;50.712;6.070;2022-12-24T16:48:16;9.62;88.41
67748;HTU21D;54543;50.712;6.070;2022-12-24T16:50:43;9.56;88.54
67748;HTU21D;54543;50.712;6.070;2022-12-24T16:53:12;9.53;88.54
67748;HTU21D;54543;50.712;6.070;2022-12-24T16:55:38;9.49;88.63
67748;HTU21D;54543;50.712;6.070;2022-12-24T16:58:04;9.47;88.70
67748;HTU21D;54543;50.712;6.070;2022-12-24T17:00:29;9.40;88.72
67748;HTU21D;54543;50.712;6.070;2022-12-24T17:02:55;9.36;88.76
67748;HTU21D;54543;50.712;6.070;2022-12-24T17:05:20;9.32;88.83
67748;HTU21D;54543;50.712;6.070;2022-12-24T17:07:50;9.29;88.91
67748;HTU21D;54543;50.712;6.070;2022-12-24T17:10:16;9.22;88.97
67748;HTU21D;54543;50.712;6.070;2022-12-24T17:12:42;9.19;89.14
67748;HTU21D;54543;50.712;6.070;2022-12-24T17:15:08;9.18;89.27
67748;HTU21D;54543;50.712;6.070;2022-12-24T17:17:34;9.17;89.25
67748;HTU21D;54543;50.712;6.070;2022-12-24T17:20:00;9.14;89.22